Language: 


Des rapports , des résumés tant et plus, au choix de chacun....


Données statistiques de la station
Quotidien Rapport Janvier 22, 2018 Unités:  les deux    Anglais   Métrique
« Précédent Jour
Suivant Jour »
Quotidien Hebdomadaire Mensuel Annuel Actuel
  Haut: Bas: Moyen:
Température: TemperatureC °F /  -17.8 °C 4.8 °F /  -15.1 °C 8.5 °F /  -13.1 °C
Pt de rosée: DewpointC °F /  -17.8 °C 3.0 °F /  -16.1 °C 7.5 °F /  -13.6 °C
Humidité: Humidity % 70 % 92 %
Vitesse du vent: WindSpeedKMH mph /  0 km/h - 0.8 mph /  1.3 km/h
Rafales: WindSpeedGustKMH mph /  0 km/h - -
Vent:- - SSW
Pression: PressurehPa in /  0 hPa 1005.0 in /  34029.3 hPa -
Précipitation: 1.0 in /  25.4 mm    
Historical Graphs
 
 
Données statistiques pour Janvier 22, 2018
Heure Température Point de rosée Pression Vent Vitesse du vent Refales Humidité Pluie (taux horaire)
TemperatureC °F /  -17.8 °C DewpointC °F /  -17.8 °C PressurehPa in /  0 hPa Calm     Humidity % HourlyPrecipMM in /  0 mm
00:06 4.8 °F /  -15.1 °C 5.0 °F /  -15 °C 1006.0 in /  34063.2 hPa SSW 2.1 mph /  3.4 km/h 2.1 mph /  3.4 km/h 98 % 0.5 in /  12.7 mm
00:11 4.9 °F /  -15.1 °C 5.0 °F /  -15 °C 1006.0 in /  34063.2 hPa SSW 2.1 mph /  3.4 km/h 2.1 mph /  3.4 km/h 98 % 0.5 in /  12.7 mm
00:16 4.9 °F /  -15.1 °C 5.0 °F /  -15 °C 1006.0 in /  34063.2 hPa SSW 2.1 mph /  3.4 km/h 2.1 mph /  3.4 km/h 98 % 0.5 in /  12.7 mm
00:21 4.9 °F /  -15.1 °C 5.0 °F /  -15 °C 1006.0 in /  34063.2 hPa SSW 2.1 mph /  3.4 km/h 2.1 mph /  3.4 km/h 98 % 0.5 in /  12.7 mm
00:26 5.1 °F /  -14.9 °C 5.0 °F /  -15 °C 1006.0 in /  34063.2 hPa SSW 2.1 mph /  3.4 km/h 2.1 mph /  3.4 km/h 98 % 0.3 in /  7.62 mm
00:36 5.2 °F /  -14.9 °C 5.0 °F /  -15 °C 1006.0 in /  34063.2 hPa SSW 2.1 mph /  3.4 km/h 2.1 mph /  3.4 km/h 98 % 0.3 in /  7.62 mm
00:41 5.2 °F /  -14.9 °C 5.0 °F /  -15 °C 1006.0 in /  34063.2 hPa SSW 2.1 mph /  3.4 km/h 2.1 mph /  3.4 km/h 98 % 0.3 in /  7.62 mm
00:46 5.2 °F /  -14.9 °C 5.0 °F /  -15 °C 1006.0 in /  34063.2 hPa SSW 2.1 mph /  3.4 km/h 2.1 mph /  3.4 km/h 98 % 0.3 in /  7.62 mm
00:51 5.2 °F /  -14.9 °C 5.0 °F /  -15 °C 1006.0 in /  34063.2 hPa SSW 2.1 mph /  3.4 km/h 2.1 mph /  3.4 km/h 98 % 0.5 in /  12.7 mm
00:56 5.2 °F /  -14.9 °C 5.0 °F /  -15 °C 1006.0 in /  34063.2 hPa SSW 2.1 mph /  3.4 km/h 2.1 mph /  3.4 km/h 98 % 0.3 in /  7.62 mm
01:01 5.2 °F /  -14.9 °C 5.0 °F /  -15 °C 1006.0 in /  34063.2 hPa SSW 2.1 mph /  3.4 km/h 2.1 mph /  3.4 km/h 98 % 0.3 in /  7.62 mm
01:06 5.2 °F /  -14.9 °C 5.0 °F /  -15 °C 1006.0 in /  34063.2 hPa SSW 2.1 mph /  3.4 km/h 2.1 mph /  3.4 km/h 98 % 0.3 in /  7.62 mm
01:11 5.7 °F /  -14.6 °C 6.0 °F /  -14.4 °C 1006.0 in /  34063.2 hPa SSW 2.1 mph /  3.4 km/h 2.1 mph /  3.4 km/h 98 % 0.3 in /  7.62 mm
01:16 5.7 °F /  -14.6 °C 6.0 °F /  -14.4 °C 1006.0 in /  34063.2 hPa SSW 2.1 mph /  3.4 km/h 2.1 mph /  3.4 km/h 98 % 0.3 in /  7.62 mm
01:21 5.7 °F /  -14.6 °C 6.0 °F /  -14.4 °C 1006.0 in /  34063.2 hPa SSW 2.1 mph /  3.4 km/h 2.1 mph /  3.4 km/h 98 % 0.3 in /  7.62 mm
01:26 5.7 °F /  -14.6 °C 6.0 °F /  -14.4 °C 1006.0 in /  34063.2 hPa SSW 2.1 mph /  3.4 km/h 2.1 mph /  3.4 km/h 98 % 0.3 in /  7.62 mm
01:31 5.7 °F /  -14.6 °C 6.0 °F /  -14.4 °C 1006.0 in /  34063.2 hPa SSW 2.1 mph /  3.4 km/h 2.1 mph /  3.4 km/h 98 % 0.3 in /  7.62 mm
01:36 5.7 °F /  -14.6 °C 6.0 °F /  -14.4 °C 1006.0 in /  34063.2 hPa SSW 2.1 mph /  3.4 km/h 2.1 mph /  3.4 km/h 98 % 0.5 in /  12.7 mm
01:42 6.3 °F /  -14.3 °C 6.0 °F /  -14.4 °C 1006.0 in /  34063.2 hPa SSW 2.1 mph /  3.4 km/h 2.1 mph /  3.4 km/h 98 % 0.5 in /  12.7 mm
01:47 6.4 °F /  -14.2 °C 6.0 °F /  -14.4 °C 1006.0 in /  34063.2 hPa SSW 2.1 mph /  3.4 km/h 2.1 mph /  3.4 km/h 98 % 0.5 in /  12.7 mm
01:52 6.4 °F /  -14.2 °C 6.0 °F /  -14.4 °C 1006.0 in /  34063.2 hPa SSW 2.1 mph /  3.4 km/h 2.1 mph /  3.4 km/h 98 % 0.3 in /  7.62 mm
01:57 7.0 °F /  -13.9 °C 7.0 °F /  -13.9 °C 1006.0 in /  34063.2 hPa SSW 2.1 mph /  3.4 km/h 2.1 mph /  3.4 km/h 98 % 0.3 in /  7.62 mm
02:02 7.0 °F /  -13.9 °C 7.0 °F /  -13.9 °C 1005.0 in /  34029.3 hPa SSW 2.1 mph /  3.4 km/h 2.1 mph /  3.4 km/h 98 % 0.3 in /  7.62 mm
02:07 7.4 °F /  -13.7 °C 7.0 °F /  -13.9 °C 1005.0 in /  34029.3 hPa SSW 2.1 mph /  3.4 km/h 2.1 mph /  3.4 km/h 98 % 0.3 in /  7.62 mm
02:12 7.4 °F /  -13.7 °C 7.0 °F /  -13.9 °C 1005.0 in /  34029.3 hPa SSW 2.1 mph /  3.4 km/h 2.1 mph /  3.4 km/h 98 % 0.3 in /  7.62 mm
02:17 7.8 °F /  -13.4 °C 8.0 °F /  -13.3 °C 1005.0 in /  34029.3 hPa SSW 2.1 mph /  3.4 km/h 2.1 mph /  3.4 km/h 98 % 0.3 in /  7.62 mm
02:22 7.8 °F /  -13.4 °C 8.0 °F /  -13.3 °C 1005.0 in /  34029.3 hPa SSW 2.1 mph /  3.4 km/h 2.1 mph /  3.4 km/h 98 % 0.3 in /  7.62 mm
02:27 7.8 °F /  -13.4 °C 8.0 °F /  -13.3 °C 1005.0 in /  34029.3 hPa SSW 2.1 mph /  3.4 km/h 2.1 mph /  3.4 km/h 98 % 0.3 in /  7.62 mm
02:32 7.8 °F /  -13.4 °C 8.0 °F /  -13.3 °C 1005.0 in /  34029.3 hPa SSW 2.1 mph /  3.4 km/h 2.1 mph /  3.4 km/h 98 % 0.0 in /  0 mm
02:37 7.8 °F /  -13.4 °C 8.0 °F /  -13.3 °C 1005.0 in /  34029.3 hPa SSW 2.1 mph /  3.4 km/h 2.1 mph /  3.4 km/h 98 % 0.0 in /  0 mm
02:42 7.8 °F /  -13.4 °C 8.0 °F /  -13.3 °C 1005.0 in /  34029.3 hPa SSW 2.1 mph /  3.4 km/h 2.1 mph /  3.4 km/h 98 % 0.0 in /  0 mm
02:48 7.8 °F /  -13.4 °C 8.0 °F /  -13.3 °C 1005.0 in /  34029.3 hPa SSW 2.1 mph /  3.4 km/h 2.1 mph /  3.4 km/h 98 % 0.0 in /  0 mm
02:53 8.8 °F /  -12.9 °C 9.0 °F /  -12.8 °C 1005.0 in /  34029.3 hPa SSW 2.1 mph /  3.4 km/h 2.1 mph /  3.4 km/h 98 % 0.3 in /  7.62 mm
02:58 8.8 °F /  -12.9 °C 9.0 °F /  -12.8 °C 1005.0 in /  34029.3 hPa SSW 2.1 mph /  3.4 km/h 2.1 mph /  3.4 km/h 98 % 0.3 in /  7.62 mm
03:03 8.8 °F /  -12.9 °C 9.0 °F /  -12.8 °C 1005.0 in /  34029.3 hPa SSW 2.1 mph /  3.4 km/h 2.1 mph /  3.4 km/h 98 % 0.3 in /  7.62 mm
03:08 8.8 °F /  -12.9 °C 9.0 °F /  -12.8 °C 1005.0 in /  34029.3 hPa SSW 2.1 mph /  3.4 km/h 2.1 mph /  3.4 km/h 98 % 0.3 in /  7.62 mm
03:13 8.8 °F /  -12.9 °C 9.0 °F /  -12.8 °C 1005.0 in /  34029.3 hPa SSW 2.1 mph /  3.4 km/h 2.1 mph /  3.4 km/h 98 % 0.3 in /  7.62 mm
03:18 8.8 °F /  -12.9 °C 9.0 °F /  -12.8 °C 1005.0 in /  34029.3 hPa SSW 2.1 mph /  3.4 km/h 2.1 mph /  3.4 km/h 98 % 0.3 in /  7.62 mm
03:23 8.8 °F /  -12.9 °C 9.0 °F /  -12.8 °C 1005.0 in /  34029.3 hPa SSW 2.1 mph /  3.4 km/h 2.1 mph /  3.4 km/h 98 % 0.3 in /  7.62 mm
03:28 8.8 °F /  -12.9 °C 9.0 °F /  -12.8 °C 1005.0 in /  34029.3 hPa SSW 2.1 mph /  3.4 km/h 2.1 mph /  3.4 km/h 98 % 0.3 in /  7.62 mm
03:33 8.8 °F /  -12.9 °C 9.0 °F /  -12.8 °C 1006.0 in /  34063.2 hPa SSW 2.1 mph /  3.4 km/h 2.1 mph /  3.4 km/h 98 % 0.3 in /  7.62 mm
03:38 8.8 °F /  -12.9 °C 9.0 °F /  -12.8 °C 1006.0 in /  34063.2 hPa SSW 2.1 mph /  3.4 km/h 2.1 mph /  3.4 km/h 98 % 0.3 in /  7.62 mm
03:48 9.8 °F /  -12.3 °C 10.0 °F /  -12.2 °C 1006.0 in /  34063.2 hPa SSW 2.1 mph /  3.4 km/h 2.1 mph /  3.4 km/h 98 % 0.3 in /  7.62 mm
03:53 9.8 °F /  -12.3 °C 10.0 °F /  -12.2 °C 1006.0 in /  34063.2 hPa SSW 2.1 mph /  3.4 km/h 2.1 mph /  3.4 km/h 98 % 0.0 in /  0 mm
03:58 9.8 °F /  -12.3 °C 10.0 °F /  -12.2 °C 1006.0 in /  34063.2 hPa SSW 2.1 mph /  3.4 km/h 2.1 mph /  3.4 km/h 98 % 0.0 in /  0 mm
04:03 10.0 °F /  -12.2 °C 10.0 °F /  -12.2 °C 1006.0 in /  34063.2 hPa SSW 2.1 mph /  3.4 km/h 2.1 mph /  3.4 km/h 98 % 0.0 in /  0 mm
04:13 10.0 °F /  -12.2 °C 10.0 °F /  -12.2 °C 1005.0 in /  34029.3 hPa SSW 2.1 mph /  3.4 km/h 2.1 mph /  3.4 km/h 98 % 0.0 in /  0 mm
04:19 9.9 °F /  -12.3 °C 10.0 °F /  -12.2 °C 1005.0 in /  34029.3 hPa SSW 2.1 mph /  3.4 km/h 2.1 mph /  3.4 km/h 98 % 0.0 in /  0 mm
04:24 9.9 °F /  -12.3 °C 10.0 °F /  -12.2 °C 1005.0 in /  34029.3 hPa SSW 2.1 mph /  3.4 km/h 2.1 mph /  3.4 km/h 98 % 0.0 in /  0 mm
04:29 9.9 °F /  -12.3 °C 10.0 °F /  -12.2 °C 1006.0 in /  34063.2 hPa SSW 2.1 mph /  3.4 km/h 2.1 mph /  3.4 km/h 98 % 0.0 in /  0 mm
04:34 9.9 °F /  -12.3 °C 10.0 °F /  -12.2 °C 1006.0 in /  34063.2 hPa SSW 2.1 mph /  3.4 km/h 2.1 mph /  3.4 km/h 98 % 0.0 in /  0 mm
04:39 9.9 °F /  -12.3 °C 10.0 °F /  -12.2 °C 1006.0 in /  34063.2 hPa SSW 2.1 mph /  3.4 km/h 2.1 mph /  3.4 km/h 98 % 0.0 in /  0 mm
04:44 9.9 °F /  -12.3 °C 10.0 °F /  -12.2 °C 1005.0 in /  34029.3 hPa SSW 2.1 mph /  3.4 km/h 2.1 mph /  3.4 km/h 98 % 0.0 in /  0 mm
04:54 9.9 °F /  -12.3 °C 10.0 °F /  -12.2 °C 1005.0 in /  34029.3 hPa SSW 2.1 mph /  3.4 km/h 2.1 mph /  3.4 km/h 98 % 0.0 in /  0 mm
04:59 9.9 °F /  -12.3 °C 10.0 °F /  -12.2 °C 1006.0 in /  34063.2 hPa SSW 2.1 mph /  3.4 km/h 2.1 mph /  3.4 km/h 98 % 0.0 in /  0 mm
05:04 9.9 °F /  -12.3 °C 10.0 °F /  -12.2 °C 1006.0 in /  34063.2 hPa SSW 2.1 mph /  3.4 km/h 2.1 mph /  3.4 km/h 98 % 0.0 in /  0 mm
05:09 9.9 °F /  -12.3 °C 10.0 °F /  -12.2 °C 1006.0 in /  34063.2 hPa SSW 2.1 mph /  3.4 km/h 2.1 mph /  3.4 km/h 98 % 0.0 in /  0 mm
05:14 9.9 °F /  -12.3 °C 10.0 °F /  -12.2 °C 1006.0 in /  34063.2 hPa SSW 2.1 mph /  3.4 km/h 2.1 mph /  3.4 km/h 98 % 0.0 in /  0 mm
05:19 9.9 °F /  -12.3 °C 10.0 °F /  -12.2 °C 1006.0 in /  34063.2 hPa SSW 2.1 mph /  3.4 km/h 2.1 mph /  3.4 km/h 98 % 0.0 in /  0 mm
05:24 9.9 °F /  -12.3 °C 10.0 °F /  -12.2 °C 1006.0 in /  34063.2 hPa SSW 2.1 mph /  3.4 km/h 2.1 mph /  3.4 km/h 98 % 0.0 in /  0 mm
05:29 10.0 °F /  -12.2 °C 10.0 °F /  -12.2 °C 1006.0 in /  34063.2 hPa SSW 2.1 mph /  3.4 km/h 2.1 mph /  3.4 km/h 98 % 0.0 in /  0 mm
05:34 10.0 °F /  -12.2 °C 10.0 °F /  -12.2 °C 1006.0 in /  34063.2 hPa SSW 2.1 mph /  3.4 km/h 2.1 mph /  3.4 km/h 98 % 0.0 in /  0 mm
05:44 10.0 °F /  -12.2 °C 10.0 °F /  -12.2 °C 1006.0 in /  34063.2 hPa SSW 2.1 mph /  3.4 km/h 2.1 mph /  3.4 km/h 98 % 0.0 in /  0 mm
05:54 10.0 °F /  -12.2 °C 10.0 °F /  -12.2 °C 1006.0 in /  34063.2 hPa SSW 2.1 mph /  3.4 km/h 2.1 mph /  3.4 km/h 98 % 0.0 in /  0 mm
06:05 10.0 °F /  -12.2 °C 10.0 °F /  -12.2 °C 1006.0 in /  34063.2 hPa SSW 2.1 mph /  3.4 km/h 2.1 mph /  3.4 km/h 98 % 0.0 in /  0 mm
06:10 10.0 °F /  -12.2 °C 10.0 °F /  -12.2 °C 1006.0 in /  34063.2 hPa SSW 2.1 mph /  3.4 km/h 2.1 mph /  3.4 km/h 98 % 0.0 in /  0 mm
06:15 10.0 °F /  -12.2 °C 10.0 °F /  -12.2 °C 1006.0 in /  34063.2 hPa SSW 2.1 mph /  3.4 km/h 2.1 mph /  3.4 km/h 98 % 0.0 in /  0 mm
06:20 10.0 °F /  -12.2 °C 10.0 °F /  -12.2 °C 1006.0 in /  34063.2 hPa SSW 2.1 mph /  3.4 km/h 2.1 mph /  3.4 km/h 98 % 0.0 in /  0 mm
06:25 10.0 °F /  -12.2 °C 10.0 °F /  -12.2 °C 1006.0 in /  34063.2 hPa SSW 2.1 mph /  3.4 km/h 2.1 mph /  3.4 km/h 98 % 0.0 in /  0 mm
06:30 10.0 °F /  -12.2 °C 10.0 °F /  -12.2 °C 1005.0 in /  34029.3 hPa SSW 2.1 mph /  3.4 km/h 2.1 mph /  3.4 km/h 98 % 0.0 in /  0 mm
06:35 10.0 °F /  -12.2 °C 10.0 °F /  -12.2 °C 1005.0 in /  34029.3 hPa SSW 2.1 mph /  3.4 km/h 2.1 mph /  3.4 km/h 98 % 0.0 in /  0 mm
06:40 10.0 °F /  -12.2 °C 10.0 °F /  -12.2 °C 1005.0 in /  34029.3 hPa SSW 2.1 mph /  3.4 km/h 2.1 mph /  3.4 km/h 98 % 0.0 in /  0 mm
06:45 10.0 °F /  -12.2 °C 10.0 °F /  -12.2 °C 1006.0 in /  34063.2 hPa SSW 2.1 mph /  3.4 km/h 2.1 mph /  3.4 km/h 98 % 0.0 in /  0 mm
06:50 10.0 °F /  -12.2 °C 10.0 °F /  -12.2 °C 1006.0 in /  34063.2 hPa SSW 2.1 mph /  3.4 km/h 2.1 mph /  3.4 km/h 98 % 0.0 in /  0 mm
06:55 10.0 °F /  -12.2 °C 10.0 °F /  -12.2 °C 1006.0 in /  34063.2 hPa SSW 2.1 mph /  3.4 km/h 2.1 mph /  3.4 km/h 98 % 0.0 in /  0 mm
07:00 10.0 °F /  -12.2 °C 10.0 °F /  -12.2 °C 1005.0 in /  34029.3 hPa SSW 2.1 mph /  3.4 km/h 2.1 mph /  3.4 km/h 98 % 0.0 in /  0 mm
07:05 10.0 °F /  -12.2 °C 10.0 °F /  -12.2 °C 1005.0 in /  34029.3 hPa SSW 2.1 mph /  3.4 km/h 2.1 mph /  3.4 km/h 98 % 0.0 in /  0 mm
07:10 10.0 °F /  -12.2 °C 10.0 °F /  -12.2 °C 1005.0 in /  34029.3 hPa SSW 2.1 mph /  3.4 km/h 2.1 mph /  3.4 km/h 98 % 0.0 in /  0 mm
07:15 10.0 °F /  -12.2 °C 10.0 °F /  -12.2 °C 1006.0 in /  34063.2 hPa SSW 2.1 mph /  3.4 km/h 2.1 mph /  3.4 km/h 98 % 0.0 in /  0 mm
07:20 10.0 °F /  -12.2 °C 10.0 °F /  -12.2 °C 1006.0 in /  34063.2 hPa SSW 2.1 mph /  3.4 km/h 2.1 mph /  3.4 km/h 98 % 0.0 in /  0 mm
07:25 10.0 °F /  -12.2 °C 10.0 °F /  -12.2 °C 1006.0 in /  34063.2 hPa SSW 2.1 mph /  3.4 km/h 2.1 mph /  3.4 km/h 98 % 0.0 in /  0 mm
07:30 10.0 °F /  -12.2 °C 10.0 °F /  -12.2 °C 1006.0 in /  34063.2 hPa SSW 2.1 mph /  3.4 km/h 2.1 mph /  3.4 km/h 98 % 0.0 in /  0 mm
07:35 10.0 °F /  -12.2 °C 10.0 °F /  -12.2 °C 1006.0 in /  34063.2 hPa SSW 2.1 mph /  3.4 km/h 2.1 mph /  3.4 km/h 98 % 0.0 in /  0 mm
07:40 10.0 °F /  -12.2 °C 10.0 °F /  -12.2 °C 1006.0 in /  34063.2 hPa SSW 2.1 mph /  3.4 km/h 2.1 mph /  3.4 km/h 98 % 0.0 in /  0 mm
07:50 10.0 °F /  -12.2 °C 10.0 °F /  -12.2 °C 1006.0 in /  34063.2 hPa SSW 2.1 mph /  3.4 km/h 2.1 mph /  3.4 km/h 98 % 0.0 in /  0 mm
07:55 10.0 °F /  -12.2 °C 10.0 °F /  -12.2 °C 1006.0 in /  34063.2 hPa SSW 2.1 mph /  3.4 km/h 2.1 mph /  3.4 km/h 98 % 0.0 in /  0 mm
08:00 10.0 °F /  -12.2 °C 10.0 °F /  -12.2 °C 1007.0 in /  34097 hPa SSW 2.1 mph /  3.4 km/h 2.1 mph /  3.4 km/h 98 % 0.0 in /  0 mm
08:05 10.0 °F /  -12.2 °C 10.0 °F /  -12.2 °C 1007.0 in /  34097 hPa SSW 2.1 mph /  3.4 km/h 2.1 mph /  3.4 km/h 98 % 0.0 in /  0 mm
08:10 10.0 °F /  -12.2 °C 10.0 °F /  -12.2 °C 1007.0 in /  34097 hPa SSW 2.1 mph /  3.4 km/h 2.1 mph /  3.4 km/h 98 % 0.0 in /  0 mm
08:15 10.0 °F /  -12.2 °C 10.0 °F /  -12.2 °C 1006.0 in /  34063.2 hPa SSW 2.1 mph /  3.4 km/h 2.1 mph /  3.4 km/h 98 % 0.0 in /  0 mm
08:25 10.0 °F /  -12.2 °C 10.0 °F /  -12.2 °C 1006.0 in /  34063.2 hPa SSW 2.1 mph /  3.4 km/h 2.1 mph /  3.4 km/h 98 % 0.0 in /  0 mm
08:35 10.0 °F /  -12.2 °C 10.0 °F /  -12.2 °C 1006.0 in /  34063.2 hPa SSW 2.1 mph /  3.4 km/h 2.1 mph /  3.4 km/h 98 % 0.0 in /  0 mm
08:40 10.0 °F /  -12.2 °C 10.0 °F /  -12.2 °C 1006.0 in /  34063.2 hPa SSW 2.1 mph /  3.4 km/h 2.1 mph /  3.4 km/h 98 % 0.0 in /  0 mm
08:45 10.0 °F /  -12.2 °C 10.0 °F /  -12.2 °C 1007.0 in /  34097 hPa SSW 2.1 mph /  3.4 km/h 2.1 mph /  3.4 km/h 98 % 0.0 in /  0 mm
08:55 10.0 °F /  -12.2 °C 10.0 °F /  -12.2 °C 1007.0 in /  34097 hPa SSW 2.1 mph /  3.4 km/h 2.1 mph /  3.4 km/h 98 % 0.0 in /  0 mm
09:01 10.0 °F /  -12.2 °C 10.0 °F /  -12.2 °C 1007.0 in /  34097 hPa SSW 2.1 mph /  3.4 km/h 2.1 mph /  3.4 km/h 98 % 0.0 in /  0 mm
09:06 10.0 °F /  -12.2 °C 10.0 °F /  -12.2 °C 1007.0 in /  34097 hPa SSW 2.1 mph /  3.4 km/h 2.1 mph /  3.4 km/h 98 % 0.0 in /  0 mm
09:16 10.0 °F /  -12.2 °C 10.0 °F /  -12.2 °C 1007.0 in /  34097 hPa Calm     98 % 0.0 in /  0 mm
09:21 10.0 °F /  -12.2 °C 10.0 °F /  -12.2 °C 1007.0 in /  34097 hPa Calm     98 % 0.0 in /  0 mm
09:31 8.2 °F /  -13.2 °C 8.0 °F /  -13.3 °C 1007.0 in /  34097 hPa Calm     98 % 0.0 in /  0 mm
09:36 8.2 °F /  -13.2 °C 8.0 °F /  -13.3 °C 1007.0 in /  34097 hPa Calm     98 % 0.0 in /  0 mm
09:41 8.4 °F /  -13.1 °C 9.0 °F /  -12.8 °C 1007.0 in /  34097 hPa Calm     98 % 0.0 in /  0 mm
09:46 8.4 °F /  -13.1 °C 9.0 °F /  -12.8 °C 1007.0 in /  34097 hPa Calm     98 % 0.0 in /  0 mm
09:51 8.5 °F /  -13.1 °C 9.0 °F /  -12.8 °C 1007.0 in /  34097 hPa Calm     98 % 0.0 in /  0 mm
10:01 8.5 °F /  -13.1 °C 9.0 °F /  -12.8 °C 1007.0 in /  34097 hPa Calm     98 % 0.0 in /  0 mm
10:06 8.5 °F /  -13.1 °C 9.0 °F /  -12.8 °C 1007.0 in /  34097 hPa Calm     98 % 0.0 in /  0 mm
10:11 8.5 °F /  -13.1 °C 9.0 °F /  -12.8 °C 1007.0 in /  34097 hPa Calm     98 % 0.0 in /  0 mm
10:16 8.5 °F /  -13.1 °C 9.0 °F /  -12.8 °C 1006.0 in /  34063.2 hPa Calm     98 % 0.0 in /  0 mm
10:21 8.6 °F /  -13 °C 9.0 °F /  -12.8 °C 1006.0 in /  34063.2 hPa Calm     98 % 0.0 in /  0 mm
10:26 8.8 °F /  -12.9 °C 9.0 °F /  -12.8 °C 1006.0 in /  34063.2 hPa Calm     98 % 0.0 in /  0 mm
10:31 9.0 °F /  -12.8 °C 9.0 °F /  -12.8 °C 1007.0 in /  34097 hPa Calm     98 % 0.0 in /  0 mm
10:36 9.1 °F /  -12.7 °C 9.0 °F /  -12.8 °C 1007.0 in /  34097 hPa Calm     98 % 0.0 in /  0 mm
10:41 9.2 °F /  -12.7 °C 9.0 °F /  -12.8 °C 1007.0 in /  34097 hPa Calm     98 % 0.0 in /  0 mm
10:46 9.3 °F /  -12.6 °C 9.0 °F /  -12.8 °C 1007.0 in /  34097 hPa Calm     98 % 0.0 in /  0 mm
10:51 9.3 °F /  -12.6 °C 9.0 °F /  -12.8 °C 1007.0 in /  34097 hPa Calm     98 % 0.0 in /  0 mm
10:57 9.2 °F /  -12.7 °C 9.0 °F /  -12.8 °C 1007.0 in /  34097 hPa Calm     98 % 0.0 in /  0 mm
11:02 9.2 °F /  -12.7 °C 9.0 °F /  -12.8 °C 1009.0 in /  34164.7 hPa Calm     98 % 0.0 in /  0 mm
11:07 9.2 °F /  -12.7 °C 9.0 °F /  -12.8 °C 1009.0 in /  34164.7 hPa Calm     98 % 0.0 in /  0 mm
11:12 9.2 °F /  -12.7 °C 9.0 °F /  -12.8 °C 1009.0 in /  34164.7 hPa Calm     98 % 0.0 in /  0 mm
11:17 9.2 °F /  -12.7 °C 9.0 °F /  -12.8 °C 1008.0 in /  34130.9 hPa Calm     98 % 0.0 in /  0 mm
11:22 9.3 °F /  -12.6 °C 9.0 °F /  -12.8 °C 1008.0 in /  34130.9 hPa Calm     98 % 0.0 in /  0 mm
11:27 9.3 °F /  -12.6 °C 9.0 °F /  -12.8 °C 1008.0 in /  34130.9 hPa Calm     98 % 0.0 in /  0 mm
11:32 9.3 °F /  -12.6 °C 9.0 °F /  -12.8 °C 1009.0 in /  34164.7 hPa Calm     98 % 0.0 in /  0 mm
11:37 9.3 °F /  -12.6 °C 9.0 °F /  -12.8 °C 1009.0 in /  34164.7 hPa Calm     98 % 0.0 in /  0 mm
11:42 9.5 °F /  -12.5 °C 10.0 °F /  -12.2 °C 1009.0 in /  34164.7 hPa Calm     98 % 0.0 in /  0 mm
11:47 9.5 °F /  -12.5 °C 10.0 °F /  -12.2 °C 1010.0 in /  34198.6 hPa Calm     98 % 0.0 in /  0 mm
11:52 9.6 °F /  -12.4 °C 10.0 °F /  -12.2 °C 1010.0 in /  34198.6 hPa Calm     98 % 0.0 in /  0 mm
11:57 9.6 °F /  -12.4 °C 10.0 °F /  -12.2 °C 1010.0 in /  34198.6 hPa Calm     98 % 0.0 in /  0 mm
12:02 9.6 °F /  -12.4 °C 10.0 °F /  -12.2 °C 1009.0 in /  34164.7 hPa Calm     98 % 0.0 in /  0 mm
12:07 9.6 °F /  -12.4 °C 10.0 °F /  -12.2 °C 1009.0 in /  34164.7 hPa Calm     98 % 0.0 in /  0 mm
12:17 9.6 °F /  -12.4 °C 10.0 °F /  -12.2 °C 1009.0 in /  34164.7 hPa Calm     98 % 0.0 in /  0 mm
12:22 9.6 °F /  -12.4 °C 10.0 °F /  -12.2 °C 1009.0 in /  34164.7 hPa Calm     98 % 0.0 in /  0 mm
12:27 9.6 °F /  -12.4 °C 10.0 °F /  -12.2 °C 1009.0 in /  34164.7 hPa Calm     98 % 0.0 in /  0 mm
12:37 9.6 °F /  -12.4 °C 10.0 °F /  -12.2 °C 1009.0 in /  34164.7 hPa Calm     98 % 0.0 in /  0 mm
12:42 10.5 °F /  -11.9 °C 11.0 °F /  -11.7 °C 1009.0 in /  34164.7 hPa Calm     98 % 0.0 in /  0 mm
12:47 10.6 °F /  -11.9 °C 11.0 °F /  -11.7 °C 1008.0 in /  34130.9 hPa Calm     98 % 0.0 in /  0 mm
12:58 10.5 °F /  -11.9 °C 10.0 °F /  -12.2 °C 1008.0 in /  34130.9 hPa Calm     97 % 0.0 in /  0 mm
13:03 10.4 °F /  -12 °C 9.0 °F /  -12.8 °C 1009.0 in /  34164.7 hPa Calm     93 % 0.0 in /  0 mm
13:13 10.5 °F /  -11.9 °C 9.0 °F /  -12.8 °C 1009.0 in /  34164.7 hPa Calm     92 % 0.0 in /  0 mm
13:18 10.5 °F /  -11.9 °C 9.0 °F /  -12.8 °C 1009.0 in /  34164.7 hPa Calm     91 % 0.0 in /  0 mm
13:23 10.5 °F /  -11.9 °C 9.0 °F /  -12.8 °C 1009.0 in /  34164.7 hPa Calm     91 % 0.0 in /  0 mm
13:28 10.5 °F /  -11.9 °C 9.0 °F /  -12.8 °C 1009.0 in /  34164.7 hPa Calm     91 % 0.0 in /  0 mm
13:38 10.3 °F /  -12.1 °C 9.0 °F /  -12.8 °C 1010.0 in /  34198.6 hPa Calm     90 % 0.0 in /  0 mm
13:43 10.6 °F /  -11.9 °C 9.0 °F /  -12.8 °C 1010.0 in /  34198.6 hPa Calm     90 % 0.0 in /  0 mm
13:53 10.9 °F /  -11.7 °C 9.0 °F /  -12.8 °C 1010.0 in /  34198.6 hPa Calm     88 % 0.0 in /  0 mm
13:58 11.1 °F /  -11.6 °C 9.0 °F /  -12.8 °C 1010.0 in /  34198.6 hPa Calm     85 % 0.0 in /  0 mm
14:03 11.2 °F /  -11.6 °C 9.0 °F /  -12.8 °C 1010.0 in /  34198.6 hPa Calm     84 % 0.0 in /  0 mm
14:13 11.5 °F /  -11.4 °C 9.0 °F /  -12.8 °C 1010.0 in /  34198.6 hPa Calm     84 % 0.0 in /  0 mm
14:18 11.5 °F /  -11.4 °C 9.0 °F /  -12.8 °C 1010.0 in /  34198.6 hPa Calm     82 % 0.0 in /  0 mm
14:28 11.4 °F /  -11.4 °C 8.0 °F /  -13.3 °C 1011.1 in /  34235.8 hPa Calm     78 % 0.0 in /  0 mm
14:33 11.4 °F /  -11.4 °C 8.0 °F /  -13.3 °C 1011.1 in /  34235.8 hPa Calm     79 % 0.0 in /  0 mm
14:38 11.2 °F /  -11.6 °C 7.0 °F /  -13.9 °C 1011.1 in /  34235.8 hPa Calm     75 % 0.0 in /  0 mm
14:43 11.3 °F /  -11.5 °C 7.0 °F /  -13.9 °C 1011.1 in /  34235.8 hPa Calm     75 % 0.0 in /  0 mm
14:48 11.2 °F /  -11.6 °C 7.0 °F /  -13.9 °C 1011.1 in /  34235.8 hPa Calm     75 % 0.0 in /  0 mm
14:53 11.2 °F /  -11.6 °C 7.0 °F /  -13.9 °C 1011.1 in /  34235.8 hPa Calm     75 % 0.0 in /  0 mm
14:59 11.2 °F /  -11.6 °C 7.0 °F /  -13.9 °C 1011.1 in /  34235.8 hPa Calm     75 % 0.0 in /  0 mm
15:04 11.1 °F /  -11.6 °C 7.0 °F /  -13.9 °C 1011.1 in /  34235.8 hPa Calm     75 % 0.0 in /  0 mm
15:14 11.2 °F /  -11.6 °C 7.0 °F /  -13.9 °C 1011.1 in /  34235.8 hPa Calm     74 % 0.0 in /  0 mm
15:24 11.2 °F /  -11.6 °C 7.0 °F /  -13.9 °C 1011.1 in /  34235.8 hPa Calm     73 % 0.0 in /  0 mm
15:29 11.1 °F /  -11.6 °C 6.0 °F /  -14.4 °C 1011.1 in /  34235.8 hPa Calm     72 % 0.0 in /  0 mm
15:34 10.9 °F /  -11.7 °C 6.0 °F /  -14.4 °C 1011.1 in /  34235.8 hPa Calm     72 % 0.0 in /  0 mm
15:39 10.9 °F /  -11.7 °C 6.0 °F /  -14.4 °C 1011.1 in /  34235.8 hPa Calm     72 % 0.0 in /  0 mm
15:44 10.9 °F /  -11.7 °C 6.0 °F /  -14.4 °C 1013.1 in /  34303.6 hPa Calm     73 % 0.0 in /  0 mm
15:49 10.8 °F /  -11.8 °C 6.0 °F /  -14.4 °C 1013.1 in /  34303.6 hPa Calm     71 % 0.0 in /  0 mm
15:54 10.8 °F /  -11.8 °C 6.0 °F /  -14.4 °C 1013.1 in /  34303.6 hPa Calm     73 % 0.0 in /  0 mm
15:59 10.7 °F /  -11.8 °C 6.0 °F /  -14.4 °C 1013.1 in /  34303.6 hPa Calm     70 % 0.0 in /  0 mm
16:04 10.7 °F /  -11.8 °C 6.0 °F /  -14.4 °C 1013.1 in /  34303.6 hPa Calm     71 % 0.0 in /  0 mm
16:09 10.8 °F /  -11.8 °C 6.0 °F /  -14.4 °C 1013.1 in /  34303.6 hPa Calm     71 % 0.0 in /  0 mm
16:14 10.8 °F /  -11.8 °C 6.0 °F /  -14.4 °C 1013.1 in /  34303.6 hPa Calm     72 % 0.0 in /  0 mm
16:19 10.8 °F /  -11.8 °C 6.0 °F /  -14.4 °C 1013.1 in /  34303.6 hPa Calm     72 % 0.0 in /  0 mm
16:24 10.5 °F /  -11.9 °C 6.0 °F /  -14.4 °C 1013.1 in /  34303.6 hPa Calm     72 % 0.0 in /  0 mm
16:29 10.5 °F /  -11.9 °C 6.0 °F /  -14.4 °C 1013.1 in /  34303.6 hPa Calm     72 % 0.0 in /  0 mm
16:35 10.1 °F /  -12.2 °C 5.0 °F /  -15 °C 1013.1 in /  34303.6 hPa Calm     71 % 0.0 in /  0 mm
16:40 9.9 °F /  -12.3 °C 6.0 °F /  -14.4 °C 1013.1 in /  34303.6 hPa Calm     72 % 0.0 in /  0 mm
16:45 9.7 °F /  -12.4 °C 5.0 °F /  -15 °C 1014.1 in /  34337.4 hPa Calm     72 % 0.0 in /  0 mm
16:50 9.6 °F /  -12.4 °C 5.0 °F /  -15 °C 1014.1 in /  34337.4 hPa Calm     73 % 0.0 in /  0 mm
16:55 9.4 °F /  -12.6 °C 5.0 °F /  -15 °C 1014.1 in /  34337.4 hPa Calm     73 % 0.0 in /  0 mm
17:00 9.3 °F /  -12.6 °C 5.0 °F /  -15 °C 1014.1 in /  34337.4 hPa Calm     74 % 0.0 in /  0 mm
17:05 9.1 °F /  -12.7 °C 5.0 °F /  -15 °C 1014.1 in /  34337.4 hPa Calm     74 % 0.0 in /  0 mm
17:10 9.0 °F /  -12.8 °C 5.0 °F /  -15 °C 1014.1 in /  34337.4 hPa Calm     75 % 0.0 in /  0 mm
17:15 8.8 °F /  -12.9 °C 5.0 °F /  -15 °C 1014.1 in /  34337.4 hPa Calm     76 % 0.0 in /  0 mm
17:18 8.8 °F /  -12.9 °C 5.0 °F /  -15 °C 1014.1 in /  34337.4 hPa Calm     76 % 0.0 in /  0 mm
17:23 8.8 °F /  -12.9 °C 5.0 °F /  -15 °C 1014.1 in /  34337.4 hPa Calm     76 % 0.0 in /  0 mm
17:28 8.8 °F /  -12.9 °C 5.0 °F /  -15 °C 1014.1 in /  34337.4 hPa Calm     76 % 0.0 in /  0 mm
17:33 8.4 °F /  -13.1 °C 5.0 °F /  -15 °C 1014.1 in /  34337.4 hPa Calm     78 % 0.0 in /  0 mm
17:38 8.3 °F /  -13.2 °C 5.0 °F /  -15 °C 1014.1 in /  34337.4 hPa Calm     79 % 0.0 in /  0 mm
17:43 8.3 °F /  -13.2 °C 5.0 °F /  -15 °C 1014.1 in /  34337.4 hPa Calm     79 % 0.0 in /  0 mm
17:48 8.0 °F /  -13.3 °C 5.0 °F /  -15 °C 1015.1 in /  34371.3 hPa Calm     80 % 0.0 in /  0 mm
17:53 7.9 °F /  -13.4 °C 5.0 °F /  -15 °C 1015.1 in /  34371.3 hPa Calm     81 % 0.0 in /  0 mm
17:58 7.9 °F /  -13.4 °C 5.0 °F /  -15 °C 1015.1 in /  34371.3 hPa Calm     81 % 0.0 in /  0 mm
18:03 7.9 °F /  -13.4 °C 5.0 °F /  -15 °C 1015.1 in /  34371.3 hPa Calm     81 % 0.0 in /  0 mm
18:08 7.7 °F /  -13.5 °C 5.0 °F /  -15 °C 1015.1 in /  34371.3 hPa Calm     83 % 0.0 in /  0 mm
18:13 7.7 °F /  -13.5 °C 5.0 °F /  -15 °C 1015.1 in /  34371.3 hPa Calm     83 % 0.0 in /  0 mm
18:17 7.7 °F /  -13.5 °C 5.0 °F /  -15 °C 1015.1 in /  34371.3 hPa Calm     83 % 0.0 in /  0 mm
18:22 7.7 °F /  -13.5 °C 5.0 °F /  -15 °C 1015.1 in /  34371.3 hPa Calm     83 % 0.0 in /  0 mm
18:27 7.7 °F /  -13.5 °C 5.0 °F /  -15 °C 1015.1 in /  34371.3 hPa Calm     83 % 0.0 in /  0 mm
18:32 7.7 °F /  -13.5 °C 5.0 °F /  -15 °C 1016.1 in /  34405.1 hPa Calm     83 % 0.0 in /  0 mm
18:37 7.7 °F /  -13.5 °C 5.0 °F /  -15 °C 1016.1 in /  34405.1 hPa Calm     83 % 0.0 in /  0 mm
18:42 7.7 °F /  -13.5 °C 5.0 °F /  -15 °C 1016.1 in /  34405.1 hPa Calm     83 % 0.0 in /  0 mm
18:47 7.7 °F /  -13.5 °C 5.0 °F /  -15 °C 1016.1 in /  34405.1 hPa Calm     83 % 0.0 in /  0 mm
18:52 7.7 °F /  -13.5 °C 5.0 °F /  -15 °C 1016.1 in /  34405.1 hPa Calm     83 % 0.0 in /  0 mm
18:57 7.7 °F /  -13.5 °C 5.0 °F /  -15 °C 1016.1 in /  34405.1 hPa Calm     83 % 0.0 in /  0 mm
19:02 5.5 °F /  -14.7 °C 4.0 °F /  -15.6 °C 1016.8 in /  34428.8 hPa Calm     86 % 0.0 in /  0 mm
19:07 5.5 °F /  -14.7 °C 4.0 °F /  -15.6 °C 1016.8 in /  34428.8 hPa Calm     86 % 0.0 in /  0 mm
19:12 5.2 °F /  -14.9 °C 3.0 °F /  -16.1 °C 1016.8 in /  34428.8 hPa Calm     87 % 0.0 in /  0 mm
19:17 5.2 °F /  -14.9 °C 3.0 °F /  -16.1 °C 1016.8 in /  34428.8 hPa Calm     87 % 0.0 in /  0 mm
19:22 5.4 °F /  -14.8 °C 4.0 °F /  -15.6 °C 1016.8 in /  34428.8 hPa Calm     90 % 0.0 in /  0 mm
19:27 5.4 °F /  -14.8 °C 4.0 °F /  -15.6 °C 1016.8 in /  34428.8 hPa Calm     90 % 0.0 in /  0 mm
19:32 5.4 °F /  -14.8 °C 4.0 °F /  -15.6 °C 1016.8 in /  34428.8 hPa Calm     90 % 0.0 in /  0 mm
19:37 5.4 °F /  -14.8 °C 4.0 °F /  -15.6 °C 1016.8 in /  34428.8 hPa Calm     90 % 0.0 in /  0 mm
19:42 5.4 °F /  -14.8 °C 4.0 °F /  -15.6 °C 1016.8 in /  34428.8 hPa Calm     90 % 0.0 in /  0 mm
19:47 5.4 °F /  -14.8 °C 4.0 °F /  -15.6 °C 1016.8 in /  34428.8 hPa Calm     90 % 0.0 in /  0 mm
19:52 5.4 °F /  -14.8 °C 4.0 °F /  -15.6 °C 1016.8 in /  34428.8 hPa Calm     90 % 0.0 in /  0 mm
19:57 5.4 °F /  -14.8 °C 4.0 °F /  -15.6 °C 1016.8 in /  34428.8 hPa Calm     90 % 0.0 in /  0 mm
20:02 5.4 °F /  -14.8 °C 4.0 °F /  -15.6 °C 1016.8 in /  34428.8 hPa Calm     90 % 0.0 in /  0 mm
20:07 6.3 °F /  -14.3 °C 6.0 °F /  -14.4 °C 1016.8 in /  34428.8 hPa Calm     93 % 0.0 in /  0 mm
20:12 6.3 °F /  -14.3 °C 6.0 °F /  -14.4 °C 1016.8 in /  34428.8 hPa Calm     93 % 0.0 in /  0 mm
20:17 6.3 °F /  -14.3 °C 6.0 °F /  -14.4 °C 1016.8 in /  34428.8 hPa Calm     93 % 0.0 in /  0 mm
20:22 6.3 °F /  -14.3 °C 6.0 °F /  -14.4 °C 1016.8 in /  34428.8 hPa Calm     93 % 0.0 in /  0 mm
20:27 6.3 °F /  -14.3 °C 6.0 °F /  -14.4 °C 1016.8 in /  34428.8 hPa Calm     93 % 0.0 in /  0 mm
20:32 6.3 °F /  -14.3 °C 6.0 °F /  -14.4 °C 1016.1 in /  34405.1 hPa Calm     93 % 0.0 in /  0 mm
20:37 6.3 °F /  -14.3 °C 6.0 °F /  -14.4 °C 1016.1 in /  34405.1 hPa Calm     93 % 0.0 in /  0 mm
20:43 6.3 °F /  -14.3 °C 6.0 °F /  -14.4 °C 1016.1 in /  34405.1 hPa Calm     93 % 0.0 in /  0 mm
20:48 6.3 °F /  -14.3 °C 6.0 °F /  -14.4 °C 1016.8 in /  34428.8 hPa Calm     93 % 0.0 in /  0 mm
20:53 6.3 °F /  -14.3 °C 6.0 °F /  -14.4 °C 1016.8 in /  34428.8 hPa Calm     93 % 0.0 in /  0 mm
20:57 6.3 °F /  -14.3 °C 6.0 °F /  -14.4 °C 1016.8 in /  34428.8 hPa Calm     93 % 0.0 in /  0 mm
21:03 6.4 °F /  -14.2 °C 6.0 °F /  -14.4 °C 1018.2 in /  34476.3 hPa Calm     95 % 0.0 in /  0 mm
21:07 6.4 °F /  -14.2 °C 6.0 °F /  -14.4 °C 1018.2 in /  34476.3 hPa Calm     95 % 0.0 in /  0 mm
21:12 6.4 °F /  -14.2 °C 6.0 °F /  -14.4 °C 1018.2 in /  34476.3 hPa Calm     95 % 0.0 in /  0 mm
21:17 6.4 °F /  -14.2 °C 6.0 °F /  -14.4 °C 1018.2 in /  34476.3 hPa Calm     95 % 0.0 in /  0 mm
21:22 6.4 °F /  -14.2 °C 6.0 °F /  -14.4 °C 1018.2 in /  34476.3 hPa Calm     95 % 0.0 in /  0 mm
21:27 6.7 °F /  -14.1 °C 6.0 °F /  -14.4 °C 1018.2 in /  34476.3 hPa Calm     96 % 0.0 in /  0 mm
21:32 6.7 °F /  -14.1 °C 6.0 °F /  -14.4 °C 1018.2 in /  34476.3 hPa Calm     96 % 0.0 in /  0 mm
21:38 6.7 °F /  -14.1 °C 6.0 °F /  -14.4 °C 1018.2 in /  34476.3 hPa Calm     96 % 0.0 in /  0 mm
21:43 6.7 °F /  -14.1 °C 6.0 °F /  -14.4 °C 1018.2 in /  34476.3 hPa Calm     96 % 0.0 in /  0 mm
21:48 6.9 °F /  -13.9 °C 7.0 °F /  -13.9 °C 1018.2 in /  34476.3 hPa Calm     96 % 0.0 in /  0 mm
21:53 7.0 °F /  -13.9 °C 7.0 °F /  -13.9 °C 1018.2 in /  34476.3 hPa Calm     96 % 0.0 in /  0 mm
21:58 7.0 °F /  -13.9 °C 7.0 °F /  -13.9 °C 1018.2 in /  34476.3 hPa Calm     96 % 0.0 in /  0 mm
22:03 7.1 °F /  -13.8 °C 7.0 °F /  -13.9 °C 1018.2 in /  34476.3 hPa Calm     96 % 0.0 in /  0 mm
22:08 7.1 °F /  -13.8 °C 7.0 °F /  -13.9 °C 1018.2 in /  34476.3 hPa Calm     96 % 0.0 in /  0 mm
22:13 7.3 °F /  -13.7 °C 7.0 °F /  -13.9 °C 1018.2 in /  34476.3 hPa Calm     96 % 0.0 in /  0 mm
22:18 7.3 °F /  -13.7 °C 7.0 °F /  -13.9 °C 1018.8 in /  34496.6 hPa Calm     96 % 0.0 in /  0 mm
22:21 7.2 °F /  -13.8 °C 7.0 °F /  -13.9 °C 1018.8 in /  34496.6 hPa Calm     95 % 0.0 in /  0 mm
22:26 7.1 °F /  -13.8 °C 6.0 °F /  -14.4 °C 1018.8 in /  34496.6 hPa Calm     95 % 0.0 in /  0 mm
22:31 7.1 °F /  -13.8 °C 6.0 °F /  -14.4 °C 1018.8 in /  34496.6 hPa Calm     95 % 0.0 in /  0 mm
22:36 7.1 °F /  -13.8 °C 6.0 °F /  -14.4 °C 1018.8 in /  34496.6 hPa Calm     95 % 0.0 in /  0 mm
22:41 7.1 °F /  -13.8 °C 6.0 °F /  -14.4 °C 1018.8 in /  34496.6 hPa Calm     95 % 0.0 in /  0 mm
22:46 7.1 °F /  -13.8 °C 6.0 °F /  -14.4 °C 1018.8 in /  34496.6 hPa Calm     95 % 0.0 in /  0 mm
22:51 7.1 °F /  -13.8 °C 6.0 °F /  -14.4 °C 1018.8 in /  34496.6 hPa Calm     95 % 0.0 in /  0 mm
22:57 7.1 °F /  -13.8 °C 6.0 °F /  -14.4 °C 1018.8 in /  34496.6 hPa Calm     95 % 0.0 in /  0 mm
23:02 7.0 °F /  -13.9 °C 6.0 °F /  -14.4 °C 1018.8 in /  34496.6 hPa Calm     95 % 0.0 in /  0 mm
23:07 7.0 °F /  -13.9 °C 6.0 °F /  -14.4 °C 1018.8 in /  34496.6 hPa Calm     94 % 0.0 in /  0 mm
23:12 7.0 °F /  -13.9 °C 6.0 °F /  -14.4 °C 1018.8 in /  34496.6 hPa Calm     94 % 0.0 in /  0 mm
23:17 7.0 °F /  -13.9 °C 6.0 °F /  -14.4 °C 1018.8 in /  34496.6 hPa Calm     94 % 0.0 in /  0 mm
23:22 7.0 °F /  -13.9 °C 6.0 °F /  -14.4 °C 1018.8 in /  34496.6 hPa Calm     95 % 0.0 in /  0 mm
23:27 7.0 °F /  -13.9 °C 6.0 °F /  -14.4 °C 1018.8 in /  34496.6 hPa Calm     95 % 0.0 in /  0 mm
23:32 7.0 °F /  -13.9 °C 6.0 °F /  -14.4 °C 1018.8 in /  34496.6 hPa Calm     95 % 0.0 in /  0 mm
23:37 7.0 °F /  -13.9 °C 6.0 °F /  -14.4 °C 1018.8 in /  34496.6 hPa Calm     95 % 0.0 in /  0 mm
23:42 7.0 °F /  -13.9 °C 6.0 °F /  -14.4 °C 1018.8 in /  34496.6 hPa Calm     95 % 0.0 in /  0 mm
23:47 7.0 °F /  -13.9 °C 6.0 °F /  -14.4 °C 1018.2 in /  34476.3 hPa Calm     95 % 0.0 in /  0 mm
23:52 7.0 °F /  -13.9 °C 6.0 °F /  -14.4 °C 1018.2 in /  34476.3 hPa Calm     95 % 0.0 in /  0 mm
23:57 7.1 °F /  -13.8 °C 6.0 °F /  -14.4 °C 1018.2 in /  34476.3 hPa Calm     94 % 0.0 in /  0 mm
Le Gheer Warneton
Courtoisie de Weather Underground - 2.25 mb

Mise a jour : 22/02/2018 04:15:11
Généré par Cumulus 1.9.4 (1099)